sensor_id;sensor_type;location;lat;lon;timestamp;temperature;humidity
72355;SHT30;60314;55.040;73.076;2022-08-19T00:01:32;10.16;72.28
72355;SHT30;60314;55.040;73.076;2022-08-19T00:03:59;10.15;72.46
72355;SHT30;60314;55.040;73.076;2022-08-19T00:06:27;10.12;72.57
72355;SHT30;60314;55.040;73.076;2022-08-19T00:08:53;10.15;72.46
72355;SHT30;60314;55.040;73.076;2022-08-19T00:11:20;10.06;72.94
72355;SHT30;60314;55.040;73.076;2022-08-19T00:13:47;10.09;73.00
72355;SHT30;60314;55.040;73.076;2022-08-19T00:16:25;10.15;72.90
72355;SHT30;60314;55.040;73.076;2022-08-19T00:18:54;10.12;72.96
72355;SHT30;60314;55.040;73.076;2022-08-19T00:21:31;10.09;73.26
72355;SHT30;60314;55.040;73.076;2022-08-19T00:23:59;10.05;73.38
72355;SHT30;60314;55.040;73.076;2022-08-19T00:26:37;10.09;73.34
72355;SHT30;60314;55.040;73.076;2022-08-19T00:29:04;10.16;73.22
72355;SHT30;60314;55.040;73.076;2022-08-19T00:31:31;10.16;73.11
72355;SHT30;60314;55.040;73.076;2022-08-19T00:33:58;10.26;72.92
72355;SHT30;60314;55.040;73.076;2022-08-19T00:36:24;10.25;72.71
72355;SHT30;60314;55.040;73.076;2022-08-19T00:38:51;10.34;72.76
72355;SHT30;60314;55.040;73.076;2022-08-19T00:41:19;10.31;72.78
72355;SHT30;60314;55.040;73.076;2022-08-19T00:44:02;10.32;72.75
72355;SHT30;60314;55.040;73.076;2022-08-19T00:46:34;10.39;72.47
72355;SHT30;60314;55.040;73.076;2022-08-19T00:49:03;10.44;72.69
72355;SHT30;60314;55.040;73.076;2022-08-19T00:51:32;10.42;72.33
72355;SHT30;60314;55.040;73.076;2022-08-19T00:53:58;10.52;72.13
72355;SHT30;60314;55.040;73.076;2022-08-19T00:56:34;10.55;71.93
72355;SHT30;60314;55.040;73.076;2022-08-19T00:59:11;10.57;71.90
72355;SHT30;60314;55.040;73.076;2022-08-19T01:01:39;10.50;72.56
72355;SHT30;60314;55.040;73.076;2022-08-19T01:04:05;10.56;71.81
72355;SHT30;60314;55.040;73.076;2022-08-19T01:06:32;10.62;72.03
72355;SHT30;60314;55.040;73.076;2022-08-19T01:08:59;10.63;72.07
72355;SHT30;60314;55.040;73.076;2022-08-19T01:11:36;10.66;71.81
72355;SHT30;60314;55.040;73.076;2022-08-19T01:14:04;10.63;72.20
72355;SHT30;60314;55.040;73.076;2022-08-19T01:16:31;10.65;71.96
72355;SHT30;60314;55.040;73.076;2022-08-19T01:18:57;10.69;72.01
72355;SHT30;60314;55.040;73.076;2022-08-19T01:21:34;10.69;71.95
72355;SHT30;60314;55.040;73.076;2022-08-19T01:24:03;10.69;72.07
72355;SHT30;60314;55.040;73.076;2022-08-19T01:26:40;10.72;71.86
72355;SHT30;60314;55.040;73.076;2022-08-19T01:29:13;10.70;72.09
72355;SHT30;60314;55.040;73.076;2022-08-19T01:31:39;10.73;72.18
72355;SHT30;60314;55.040;73.076;2022-08-19T01:34:06;10.70;71.76
72355;SHT30;60314;55.040;73.076;2022-08-19T01:38:59;10.62;72.46
72355;SHT30;60314;55.040;73.076;2022-08-19T01:41:32;10.63;72.39
72355;SHT30;60314;55.040;73.076;2022-08-19T01:44:08;10.75;72.43
72355;SHT30;60314;55.040;73.076;2022-08-19T01:46:35;10.75;72.23
72355;SHT30;60314;55.040;73.076;2022-08-19T01:49:01;10.76;71.66
72355;SHT30;60314;55.040;73.076;2022-08-19T01:51:28;10.83;71.77
72355;SHT30;60314;55.040;73.076;2022-08-19T01:53:54;10.80;72.36
72355;SHT30;60314;55.040;73.076;2022-08-19T01:56:26;10.89;71.55
72355;SHT30;60314;55.040;73.076;2022-08-19T01:59:02;10.84;71.46
72355;SHT30;60314;55.040;73.076;2022-08-19T02:01:29;10.87;71.74
72355;SHT30;60314;55.040;73.076;2022-08-19T02:03:58;10.81;71.58
72355;SHT30;60314;55.040;73.076;2022-08-19T02:06:26;10.77;71.36
72355;SHT30;60314;55.040;73.076;2022-08-19T02:09:04;10.86;71.37
72355;SHT30;60314;55.040;73.076;2022-08-19T02:11:32;10.86;71.39
72355;SHT30;60314;55.040;73.076;2022-08-19T02:14:00;10.90;71.21
72355;SHT30;60314;55.040;73.076;2022-08-19T02:16:28;10.83;71.24
72355;SHT30;60314;55.040;73.076;2022-08-19T02:18:54;10.87;71.39
72355;SHT30;60314;55.040;73.076;2022-08-19T02:21:21;10.95;70.81
72355;SHT30;60314;55.040;73.076;2022-08-19T02:23:49;10.93;71.07
72355;SHT30;60314;55.040;73.076;2022-08-19T02:26:20;10.97;70.87
72355;SHT30;60314;55.040;73.076;2022-08-19T02:28:47;11.01;71.03
72355;SHT30;60314;55.040;73.076;2022-08-19T02:31:16;11.06;71.19
72355;SHT30;60314;55.040;73.076;2022-08-19T02:33:43;11.11;71.02
72355;SHT30;60314;55.040;73.076;2022-08-19T02:36:11;11.26;70.29
72355;SHT30;60314;55.040;73.076;2022-08-19T02:38:37;11.26;69.82
72355;SHT30;60314;55.040;73.076;2022-08-19T02:41:05;11.23;69.75
72355;SHT30;60314;55.040;73.076;2022-08-19T02:43:33;11.18;70.15
72355;SHT30;60314;55.040;73.076;2022-08-19T02:46:10;11.26;70.28
72355;SHT30;60314;55.040;73.076;2022-08-19T02:48:37;11.21;70.06
72355;SHT30;60314;55.040;73.076;2022-08-19T02:51:04;11.20;70.47
72355;SHT30;60314;55.040;73.076;2022-08-19T02:53:31;11.24;70.04
72355;SHT30;60314;55.040;73.076;2022-08-19T02:55:57;11.26;69.86
72355;SHT30;60314;55.040;73.076;2022-08-19T02:58:34;11.30;69.66
72355;SHT30;60314;55.040;73.076;2022-08-19T03:01:07;11.34;69.98
72355;SHT30;60314;55.040;73.076;2022-08-19T03:03:43;11.42;69.48
72355;SHT30;60314;55.040;73.076;2022-08-19T03:06:11;11.41;69.30
72355;SHT30;60314;55.040;73.076;2022-08-19T03:08:39;11.38;69.12
72355;SHT30;60314;55.040;73.076;2022-08-19T03:11:18;11.50;69.59
72355;SHT30;60314;55.040;73.076;2022-08-19T03:13:44;11.50;69.83
72355;SHT30;60314;55.040;73.076;2022-08-19T03:16:11;11.55;68.84
72355;SHT30;60314;55.040;73.076;2022-08-19T03:18:37;11.50;69.23
72355;SHT30;60314;55.040;73.076;2022-08-19T03:21:21;11.50;69.29
72355;SHT30;60314;55.040;73.076;2022-08-19T03:23:48;11.54;69.05
72355;SHT30;60314;55.040;73.076;2022-08-19T03:26:14;11.50;69.05
72355;SHT30;60314;55.040;73.076;2022-08-19T03:28:43;11.58;69.06
72355;SHT30;60314;55.040;73.076;2022-08-19T03:31:12;11.65;68.13
72355;SHT30;60314;55.040;73.076;2022-08-19T03:33:39;11.62;68.27
72355;SHT30;60314;55.040;73.076;2022-08-19T03:36:08;11.57;68.36
72355;SHT30;60314;55.040;73.076;2022-08-19T03:38:44;11.61;68.69
72355;SHT30;60314;55.040;73.076;2022-08-19T03:41:14;11.69;68.61
72355;SHT30;60314;55.040;73.076;2022-08-19T03:43:59;11.79;67.92
72355;SHT30;60314;55.040;73.076;2022-08-19T03:46:27;11.83;67.99
72355;SHT30;60314;55.040;73.076;2022-08-19T03:48:54;11.83;67.81
72355;SHT30;60314;55.040;73.076;2022-08-19T03:51:22;11.90;67.70
72355;SHT30;60314;55.040;73.076;2022-08-19T03:53:48;11.96;68.15
72355;SHT30;60314;55.040;73.076;2022-08-19T03:56:15;11.98;67.23
72355;SHT30;60314;55.040;73.076;2022-08-19T03:58:42;11.96;68.16
72355;SHT30;60314;55.040;73.076;2022-08-19T04:01:09;11.98;67.34
72355;SHT30;60314;55.040;73.076;2022-08-19T04:03:36;12.03;67.21
72355;SHT30;60314;55.040;73.076;2022-08-19T04:08:39;12.05;67.01
72355;SHT30;60314;55.040;73.076;2022-08-19T04:11:07;12.15;66.41
72355;SHT30;60314;55.040;73.076;2022-08-19T04:13:33;12.17;67.24
72355;SHT30;60314;55.040;73.076;2022-08-19T04:16:00;12.27;66.65
72355;SHT30;60314;55.040;73.076;2022-08-19T04:18:27;12.41;66.84
72355;SHT30;60314;55.040;73.076;2022-08-19T04:21:17;12.54;66.20
72355;SHT30;60314;55.040;73.076;2022-08-19T04:23:55;12.73;66.17
72355;SHT30;60314;55.040;73.076;2022-08-19T04:26:27;12.88;65.42
72355;SHT30;60314;55.040;73.076;2022-08-19T04:28:53;13.08;64.27
72355;SHT30;60314;55.040;73.076;2022-08-19T04:31:21;12.99;64.38
72355;SHT30;60314;55.040;73.076;2022-08-19T04:33:48;13.02;63.97
72355;SHT30;60314;55.040;73.076;2022-08-19T04:36:16;13.09;63.81
72355;SHT30;60314;55.040;73.076;2022-08-19T04:38:54;13.18;63.25
72355;SHT30;60314;55.040;73.076;2022-08-19T04:41:30;13.19;61.98
72355;SHT30;60314;55.040;73.076;2022-08-19T04:44:15;13.22;63.05
72355;SHT30;60314;55.040;73.076;2022-08-19T04:46:47;13.35;63.34
72355;SHT30;60314;55.040;73.076;2022-08-19T04:49:15;13.30;62.42
72355;SHT30;60314;55.040;73.076;2022-08-19T04:51:53;13.43;62.96
72355;SHT30;60314;55.040;73.076;2022-08-19T04:54:20;13.60;62.61
72355;SHT30;60314;55.040;73.076;2022-08-19T04:56:48;13.63;61.66
72355;SHT30;60314;55.040;73.076;2022-08-19T04:59:16;13.70;62.57
72355;SHT30;60314;55.040;73.076;2022-08-19T05:01:42;13.70;60.44
72355;SHT30;60314;55.040;73.076;2022-08-19T05:04:09;13.69;60.97
72355;SHT30;60314;55.040;73.076;2022-08-19T05:06:35;13.63;61.11
72355;SHT30;60314;55.040;73.076;2022-08-19T05:09:02;13.70;61.55
72355;SHT30;60314;55.040;73.076;2022-08-19T05:11:30;13.70;61.84
72355;SHT30;60314;55.040;73.076;2022-08-19T05:13:57;13.74;60.95
72355;SHT30;60314;55.040;73.076;2022-08-19T05:16:24;13.86;60.81
72355;SHT30;60314;55.040;73.076;2022-08-19T05:18:50;13.87;60.52
72355;SHT30;60314;55.040;73.076;2022-08-19T05:21:55;14.03;59.44
72355;SHT30;60314;55.040;73.076;2022-08-19T05:24:40;14.11;59.71
72355;SHT30;60314;55.040;73.076;2022-08-19T05:27:06;14.30;60.22
72355;SHT30;60314;55.040;73.076;2022-08-19T05:29:33;14.25;58.96
72355;SHT30;60314;55.040;73.076;2022-08-19T05:32:03;14.16;59.88
72355;SHT30;60314;55.040;73.076;2022-08-19T05:34:31;14.25;60.31
72355;SHT30;60314;55.040;73.076;2022-08-19T05:37:01;14.48;59.16
72355;SHT30;60314;55.040;73.076;2022-08-19T05:39:28;14.52;57.97
72355;SHT30;60314;55.040;73.076;2022-08-19T05:42:05;14.32;59.10
72355;SHT30;60314;55.040;73.076;2022-08-19T05:44:34;14.21;60.03
72355;SHT30;60314;55.040;73.076;2022-08-19T05:47:01;14.17;59.75
72355;SHT30;60314;55.040;73.076;2022-08-19T05:49:28;14.20;59.63
72355;SHT30;60314;55.040;73.076;2022-08-19T05:51:55;14.16;59.03
72355;SHT30;60314;55.040;73.076;2022-08-19T05:54:24;14.34;60.54
72355;SHT30;60314;55.040;73.076;2022-08-19T05:56:51;14.46;59.64
72355;SHT30;60314;55.040;73.076;2022-08-19T05:59:18;14.73;58.82
72355;SHT30;60314;55.040;73.076;2022-08-19T06:01:47;14.92;58.86
72355;SHT30;60314;55.040;73.076;2022-08-19T06:04:18;15.02;57.98
72355;SHT30;60314;55.040;73.076;2022-08-19T06:06:57;15.19;58.52
72355;SHT30;60314;55.040;73.076;2022-08-19T06:09:24;15.04;57.70
72355;SHT30;60314;55.040;73.076;2022-08-19T06:11:58;15.20;57.33
72355;SHT30;60314;55.040;73.076;2022-08-19T06:14:29;14.99;58.08
72355;SHT30;60314;55.040;73.076;2022-08-19T06:16:57;15.24;58.36
72355;SHT30;60314;55.040;73.076;2022-08-19T06:19:27;15.39;56.91
72355;SHT30;60314;55.040;73.076;2022-08-19T06:21:57;15.34;57.56
72355;SHT30;60314;55.040;73.076;2022-08-19T06:24:42;15.18;58.21
72355;SHT30;60314;55.040;73.076;2022-08-19T06:27:09;15.10;59.08
72355;SHT30;60314;55.040;73.076;2022-08-19T06:29:35;15.06;58.84
72355;SHT30;60314;55.040;73.076;2022-08-19T06:32:06;15.13;59.84
72355;SHT30;60314;55.040;73.076;2022-08-19T06:34:48;15.18;58.98
72355;SHT30;60314;55.040;73.076;2022-08-19T06:37:14;15.19;58.50
72355;SHT30;60314;55.040;73.076;2022-08-19T06:39:42;15.32;58.44
72355;SHT30;60314;55.040;73.076;2022-08-19T06:42:11;15.33;58.01
72355;SHT30;60314;55.040;73.076;2022-08-19T06:44:43;15.29;57.18
72355;SHT30;60314;55.040;73.076;2022-08-19T06:47:13;15.22;57.60
72355;SHT30;60314;55.040;73.076;2022-08-19T06:49:40;15.34;57.69
72355;SHT30;60314;55.040;73.076;2022-08-19T06:52:07;15.32;57.06
72355;SHT30;60314;55.040;73.076;2022-08-19T06:54:39;15.24;57.72
72355;SHT30;60314;55.040;73.076;2022-08-19T06:57:06;15.27;58.15
72355;SHT30;60314;55.040;73.076;2022-08-19T06:59:35;15.22;57.84
72355;SHT30;60314;55.040;73.076;2022-08-19T07:02:12;15.10;58.27
72355;SHT30;60314;55.040;73.076;2022-08-19T07:04:39;15.12;59.43
72355;SHT30;60314;55.040;73.076;2022-08-19T07:07:08;15.16;58.55
72355;SHT30;60314;55.040;73.076;2022-08-19T07:09:37;15.00;59.14
72355;SHT30;60314;55.040;73.076;2022-08-19T07:12:06;14.85;60.33
72355;SHT30;60314;55.040;73.076;2022-08-19T07:14:35;14.83;59.65
72355;SHT30;60314;55.040;73.076;2022-08-19T07:17:05;14.82;59.70
72355;SHT30;60314;55.040;73.076;2022-08-19T07:19:32;14.75;60.06
72355;SHT30;60314;55.040;73.076;2022-08-19T07:22:02;14.75;60.59
72355;SHT30;60314;55.040;73.076;2022-08-19T07:24:29;14.79;60.39
72355;SHT30;60314;55.040;73.076;2022-08-19T07:26:58;14.81;60.37
72355;SHT30;60314;55.040;73.076;2022-08-19T07:29:27;14.75;60.00
72355;SHT30;60314;55.040;73.076;2022-08-19T07:31:54;14.73;60.00
72355;SHT30;60314;55.040;73.076;2022-08-19T07:34:26;14.68;60.53
72355;SHT30;60314;55.040;73.076;2022-08-19T07:36:53;14.76;61.09
72355;SHT30;60314;55.040;73.076;2022-08-19T07:39:31;14.71;60.44
72355;SHT30;60314;55.040;73.076;2022-08-19T07:41:59;14.65;61.70
72355;SHT30;60314;55.040;73.076;2022-08-19T07:44:26;14.78;61.13
72355;SHT30;60314;55.040;73.076;2022-08-19T07:46:58;14.82;61.37
72355;SHT30;60314;55.040;73.076;2022-08-19T07:49:28;14.85;60.39
72355;SHT30;60314;55.040;73.076;2022-08-19T07:52:06;14.81;61.41
72355;SHT30;60314;55.040;73.076;2022-08-19T07:54:35;14.75;61.20
72355;SHT30;60314;55.040;73.076;2022-08-19T07:57:03;14.81;61.43
72355;SHT30;60314;55.040;73.076;2022-08-19T07:59:31;14.82;61.32
72355;SHT30;60314;55.040;73.076;2022-08-19T08:02:03;14.81;60.92
72355;SHT30;60314;55.040;73.076;2022-08-19T08:04:30;14.72;62.20
72355;SHT30;60314;55.040;73.076;2022-08-19T08:07:15;14.82;62.59
72355;SHT30;60314;55.040;73.076;2022-08-19T08:10:17;14.95;62.81
72355;SHT30;60314;55.040;73.076;2022-08-19T08:12:44;14.89;61.74
72355;SHT30;60314;55.040;73.076;2022-08-19T08:15:14;14.93;62.71
72355;SHT30;60314;55.040;73.076;2022-08-19T08:17:44;15.12;62.26
72355;SHT30;60314;55.040;73.076;2022-08-19T08:20:13;15.03;61.16
72355;SHT30;60314;55.040;73.076;2022-08-19T08:22:44;14.96;61.61
72355;SHT30;60314;55.040;73.076;2022-08-19T08:25:29;15.02;61.90
72355;SHT30;60314;55.040;73.076;2022-08-19T08:27:57;15.02;61.94
72355;SHT30;60314;55.040;73.076;2022-08-19T08:30:27;15.13;62.01
72355;SHT30;60314;55.040;73.076;2022-08-19T08:32:54;15.16;62.30
72355;SHT30;60314;55.040;73.076;2022-08-19T08:35:28;15.22;61.99
72355;SHT30;60314;55.040;73.076;2022-08-19T08:37:57;15.12;62.00
72355;SHT30;60314;55.040;73.076;2022-08-19T08:40:26;15.18;61.74
72355;SHT30;60314;55.040;73.076;2022-08-19T08:43:07;15.18;61.30
72355;SHT30;60314;55.040;73.076;2022-08-19T08:45:43;15.14;61.44
72355;SHT30;60314;55.040;73.076;2022-08-19T08:48:21;15.04;61.75
72355;SHT30;60314;55.040;73.076;2022-08-19T08:50:51;15.09;61.99
72355;SHT30;60314;55.040;73.076;2022-08-19T08:53:20;15.03;62.05
72355;SHT30;60314;55.040;73.076;2022-08-19T08:55:56;15.10;62.19
72355;SHT30;60314;55.040;73.076;2022-08-19T08:58:39;15.09;62.95
72355;SHT30;60314;55.040;73.076;2022-08-19T09:01:10;14.93;63.04
72355;SHT30;60314;55.040;73.076;2022-08-19T09:03:41;15.00;63.44
72355;SHT30;60314;55.040;73.076;2022-08-19T09:06:37;15.02;63.43
72355;SHT30;60314;55.040;73.076;2022-08-19T09:15:32;15.00;63.38
72355;SHT30;60314;55.040;73.076;2022-08-19T09:18:02;15.02;63.04
72355;SHT30;60314;55.040;73.076;2022-08-19T09:20:30;14.98;63.27
72355;SHT30;60314;55.040;73.076;2022-08-19T09:22:57;15.06;63.79
72355;SHT30;60314;55.040;73.076;2022-08-19T09:25:24;15.06;63.72
72355;SHT30;60314;55.040;73.076;2022-08-19T09:28:15;15.06;64.10
72355;SHT30;60314;55.040;73.076;2022-08-19T09:30:42;15.06;63.85
72355;SHT30;60314;55.040;73.076;2022-08-19T09:33:08;15.13;63.95
72355;SHT30;60314;55.040;73.076;2022-08-19T09:35:35;15.18;64.07
72355;SHT30;60314;55.040;73.076;2022-08-19T09:38:02;15.22;63.75
72355;SHT30;60314;55.040;73.076;2022-08-19T09:40:31;15.22;64.18
72355;SHT30;60314;55.040;73.076;2022-08-19T09:42:58;15.13;64.46
72355;SHT30;60314;55.040;73.076;2022-08-19T09:45:28;15.03;64.81
72355;SHT30;60314;55.040;73.076;2022-08-19T09:47:56;14.95;65.29
72355;SHT30;60314;55.040;73.076;2022-08-19T09:50:23;14.81;65.89
72355;SHT30;60314;55.040;73.076;2022-08-19T09:52:50;14.71;66.65
72355;SHT30;60314;55.040;73.076;2022-08-19T09:55:18;14.68;66.97
72355;SHT30;60314;55.040;73.076;2022-08-19T09:57:44;14.57;67.58
72355;SHT30;60314;55.040;73.076;2022-08-19T10:00:11;14.40;68.44
72355;SHT30;60314;55.040;73.076;2022-08-19T10:02:38;14.45;70.41
72355;SHT30;60314;55.040;73.076;2022-08-19T10:05:04;14.34;71.17
72355;SHT30;60314;55.040;73.076;2022-08-19T10:07:49;14.13;72.06
72355;SHT30;60314;55.040;73.076;2022-08-19T10:10:16;14.03;73.56
72355;SHT30;60314;55.040;73.076;2022-08-19T10:12:42;13.99;74.54
72355;SHT30;60314;55.040;73.076;2022-08-19T10:15:13;13.89;75.00
72355;SHT30;60314;55.040;73.076;2022-08-19T10:17:40;13.84;73.98
72355;SHT30;60314;55.040;73.076;2022-08-19T10:20:07;13.84;74.58
72355;SHT30;60314;55.040;73.076;2022-08-19T10:22:33;13.69;77.36
72355;SHT30;60314;55.040;73.076;2022-08-19T10:25:01;13.62;77.69
72355;SHT30;60314;55.040;73.076;2022-08-19T10:27:28;13.56;78.53
72355;SHT30;60314;55.040;73.076;2022-08-19T10:29:55;13.60;78.92
72355;SHT30;60314;55.040;73.076;2022-08-19T10:32:27;13.65;78.72
72355;SHT30;60314;55.040;73.076;2022-08-19T10:34:55;13.59;78.53
72355;SHT30;60314;55.040;73.076;2022-08-19T10:37:22;13.60;79.46
72355;SHT30;60314;55.040;73.076;2022-08-19T10:39:49;13.43;80.78
72355;SHT30;60314;55.040;73.076;2022-08-19T10:42:15;13.42;81.71
72355;SHT30;60314;55.040;73.076;2022-08-19T10:44:43;13.40;81.34
72355;SHT30;60314;55.040;73.076;2022-08-19T10:47:10;13.46;81.27
72355;SHT30;60314;55.040;73.076;2022-08-19T10:49:37;13.53;80.63
72355;SHT30;60314;55.040;73.076;2022-08-19T10:52:23;13.52;81.13
72355;SHT30;60314;55.040;73.076;2022-08-19T10:55:04;13.58;80.05
72355;SHT30;60314;55.040;73.076;2022-08-19T10:57:50;13.69;80.74
72355;SHT30;60314;55.040;73.076;2022-08-19T11:00:20;13.76;78.91
72355;SHT30;60314;55.040;73.076;2022-08-19T11:02:46;13.89;80.66
72355;SHT30;60314;55.040;73.076;2022-08-19T11:05:13;14.01;80.59
72355;SHT30;60314;55.040;73.076;2022-08-19T11:07:41;13.93;80.24
72355;SHT30;60314;55.040;73.076;2022-08-19T11:10:09;13.97;80.46
72355;SHT30;60314;55.040;73.076;2022-08-19T11:12:37;14.00;80.39
72355;SHT30;60314;55.040;73.076;2022-08-19T11:15:08;13.96;80.59
72355;SHT30;60314;55.040;73.076;2022-08-19T11:17:38;13.94;80.20
72355;SHT30;60314;55.040;73.076;2022-08-19T11:20:14;13.93;79.36
72355;SHT30;60314;55.040;73.076;2022-08-19T11:22:41;14.03;79.31
72355;SHT30;60314;55.040;73.076;2022-08-19T11:25:09;13.99;79.21
72355;SHT30;60314;55.040;73.076;2022-08-19T11:27:40;13.96;79.15
72355;SHT30;60314;55.040;73.076;2022-08-19T11:30:12;13.94;79.81
72355;SHT30;60314;55.040;73.076;2022-08-19T11:32:42;13.83;80.09
72355;SHT30;60314;55.040;73.076;2022-08-19T11:35:09;13.84;79.60
72355;SHT30;60314;55.040;73.076;2022-08-19T11:37:37;13.79;79.89
72355;SHT30;60314;55.040;73.076;2022-08-19T11:40:25;13.79;80.30
72355;SHT30;60314;55.040;73.076;2022-08-19T11:42:51;13.76;80.77
72355;SHT30;60314;55.040;73.076;2022-08-19T11:45:31;13.73;80.17
72355;SHT30;60314;55.040;73.076;2022-08-19T11:48:07;13.70;81.27
72355;SHT30;60314;55.040;73.076;2022-08-19T11:50:34;13.73;79.92
72355;SHT30;60314;55.040;73.076;2022-08-19T11:53:01;13.69;80.79
72355;SHT30;60314;55.040;73.076;2022-08-19T11:55:28;13.67;80.77
72355;SHT30;60314;55.040;73.076;2022-08-19T11:57:54;13.73;80.79
72355;SHT30;60314;55.040;73.076;2022-08-19T12:00:44;13.79;81.66
72355;SHT30;60314;55.040;73.076;2022-08-19T12:03:14;13.80;82.84
72355;SHT30;60314;55.040;73.076;2022-08-19T12:06:06;13.97;81.48
72355;SHT30;60314;55.040;73.076;2022-08-19T12:08:44;13.97;82.57
72355;SHT30;60314;55.040;73.076;2022-08-19T12:11:22;14.01;82.62
72355;SHT30;60314;55.040;73.076;2022-08-19T12:13:54;14.06;82.44
72355;SHT30;60314;55.040;73.076;2022-08-19T12:16:31;14.10;81.23
72355;SHT30;60314;55.040;73.076;2022-08-19T12:19:04;14.20;80.74
72355;SHT30;60314;55.040;73.076;2022-08-19T12:21:41;14.14;81.53
72355;SHT30;60314;55.040;73.076;2022-08-19T12:24:09;14.16;81.11
72355;SHT30;60314;55.040;73.076;2022-08-19T12:26:41;14.07;81.32
72355;SHT30;60314;55.040;73.076;2022-08-19T12:29:08;14.07;81.76
72355;SHT30;60314;55.040;73.076;2022-08-19T12:31:37;14.06;80.93
72355;SHT30;60314;55.040;73.076;2022-08-19T12:34:05;14.03;82.23
72355;SHT30;60314;55.040;73.076;2022-08-19T12:36:32;14.03;81.31
72355;SHT30;60314;55.040;73.076;2022-08-19T12:38:59;14.07;82.14
72355;SHT30;60314;55.040;73.076;2022-08-19T12:41:26;14.09;81.86
72355;SHT30;60314;55.040;73.076;2022-08-19T12:43:52;14.10;81.64
72355;SHT30;60314;55.040;73.076;2022-08-19T12:46:23;14.11;81.97
72355;SHT30;60314;55.040;73.076;2022-08-19T12:48:50;14.10;80.61
72355;SHT30;60314;55.040;73.076;2022-08-19T12:51:18;14.04;81.71
72355;SHT30;60314;55.040;73.076;2022-08-19T12:53:48;14.13;79.76
72355;SHT30;60314;55.040;73.076;2022-08-19T12:56:15;14.13;81.72
72355;SHT30;60314;55.040;73.076;2022-08-19T12:58:43;14.16;81.42
72355;SHT30;60314;55.040;73.076;2022-08-19T13:01:13;14.13;80.46
72355;SHT30;60314;55.040;73.076;2022-08-19T13:03:40;14.21;81.43
72355;SHT30;60314;55.040;73.076;2022-08-19T13:06:08;14.22;81.98
72355;SHT30;60314;55.040;73.076;2022-08-19T13:08:39;14.13;81.60
72355;SHT30;60314;55.040;73.076;2022-08-19T13:11:14;14.10;81.37
72355;SHT30;60314;55.040;73.076;2022-08-19T13:13:44;14.00;81.68
72355;SHT30;60314;55.040;73.076;2022-08-19T13:16:16;13.97;80.76
72355;SHT30;60314;55.040;73.076;2022-08-19T13:18:45;14.00;81.74
72355;SHT30;60314;55.040;73.076;2022-08-19T13:21:20;13.93;82.23
72355;SHT30;60314;55.040;73.076;2022-08-19T13:23:46;13.97;81.06
72355;SHT30;60314;55.040;73.076;2022-08-19T13:26:13;13.90;82.14
72355;SHT30;60314;55.040;73.076;2022-08-19T13:28:41;13.83;82.46
72355;SHT30;60314;55.040;73.076;2022-08-19T13:31:45;13.83;82.22
72355;SHT30;60314;55.040;73.076;2022-08-19T13:34:35;13.81;82.29
72355;SHT30;60314;55.040;73.076;2022-08-19T13:37:04;13.71;82.50
72355;SHT30;60314;55.040;73.076;2022-08-19T13:39:34;13.59;82.93
72355;SHT30;60314;55.040;73.076;2022-08-19T13:42:02;13.63;82.46
72355;SHT30;60314;55.040;73.076;2022-08-19T13:44:30;13.67;82.78
72355;SHT30;60314;55.040;73.076;2022-08-19T13:47:04;13.66;83.00
72355;SHT30;60314;55.040;73.076;2022-08-19T13:49:35;13.70;82.57
72355;SHT30;60314;55.040;73.076;2022-08-19T13:52:06;13.70;82.88
72355;SHT30;60314;55.040;73.076;2022-08-19T13:54:32;13.67;81.63
72355;SHT30;60314;55.040;73.076;2022-08-19T13:56:59;13.66;83.06
72355;SHT30;60314;55.040;73.076;2022-08-19T13:59:25;13.65;82.97
72355;SHT30;60314;55.040;73.076;2022-08-19T14:01:52;13.56;83.61
72355;SHT30;60314;55.040;73.076;2022-08-19T14:04:20;13.58;83.60
72355;SHT30;60314;55.040;73.076;2022-08-19T14:06:46;13.52;83.94
72355;SHT30;60314;55.040;73.076;2022-08-19T14:09:13;13.50;83.12
72355;SHT30;60314;55.040;73.076;2022-08-19T14:11:39;13.53;83.49
72355;SHT30;60314;55.040;73.076;2022-08-19T14:14:05;13.56;83.25
72355;SHT30;60314;55.040;73.076;2022-08-19T14:16:32;13.53;82.07
72355;SHT30;60314;55.040;73.076;2022-08-19T14:18:59;13.56;83.51
72355;SHT30;60314;55.040;73.076;2022-08-19T14:21:25;13.55;83.43
72355;SHT30;60314;55.040;73.076;2022-08-19T14:23:52;13.56;83.46
72355;SHT30;60314;55.040;73.076;2022-08-19T14:26:20;13.52;83.49
72355;SHT30;60314;55.040;73.076;2022-08-19T14:28:47;13.53;83.66
72355;SHT30;60314;55.040;73.076;2022-08-19T14:31:17;13.50;83.36
72355;SHT30;60314;55.040;73.076;2022-08-19T14:33:47;13.43;83.72
72355;SHT30;60314;55.040;73.076;2022-08-19T14:36:20;13.43;83.78
72355;SHT30;60314;55.040;73.076;2022-08-19T14:38:48;13.40;83.42
72355;SHT30;60314;55.040;73.076;2022-08-19T14:41:20;13.38;83.39
72355;SHT30;60314;55.040;73.076;2022-08-19T14:43:49;13.42;83.78
72355;SHT30;60314;55.040;73.076;2022-08-19T14:46:19;13.43;83.81
72355;SHT30;60314;55.040;73.076;2022-08-19T14:48:52;13.42;83.79
72355;SHT30;60314;55.040;73.076;2022-08-19T14:51:20;13.40;84.05
72355;SHT30;60314;55.040;73.076;2022-08-19T14:53:47;13.35;84.28
72355;SHT30;60314;55.040;73.076;2022-08-19T14:56:19;13.38;84.27
72355;SHT30;60314;55.040;73.076;2022-08-19T14:58:46;13.39;83.86
72355;SHT30;60314;55.040;73.076;2022-08-19T15:01:13;13.45;83.93
72355;SHT30;60314;55.040;73.076;2022-08-19T15:03:45;13.40;84.25
72355;SHT30;60314;55.040;73.076;2022-08-19T15:06:30;13.34;84.59
72355;SHT30;60314;55.040;73.076;2022-08-19T15:08:58;13.30;84.55
72355;SHT30;60314;55.040;73.076;2022-08-19T15:11:26;13.32;84.58
72355;SHT30;60314;55.040;73.076;2022-08-19T15:13:55;13.39;84.40
72355;SHT30;60314;55.040;73.076;2022-08-19T15:16:32;13.35;84.56
72355;SHT30;60314;55.040;73.076;2022-08-19T15:18:59;13.39;84.51
72355;SHT30;60314;55.040;73.076;2022-08-19T15:21:29;13.42;84.46
72355;SHT30;60314;55.040;73.076;2022-08-19T15:23:57;13.39;84.32
72355;SHT30;60314;55.040;73.076;2022-08-19T15:26:24;13.42;83.97
72355;SHT30;60314;55.040;73.076;2022-08-19T15:28:59;13.48;84.04
72355;SHT30;60314;55.040;73.076;2022-08-19T15:31:35;13.39;84.47
72355;SHT30;60314;55.040;73.076;2022-08-19T15:34:03;13.36;84.60
72355;SHT30;60314;55.040;73.076;2022-08-19T15:36:29;13.42;84.20
72355;SHT30;60314;55.040;73.076;2022-08-19T15:38:57;13.43;84.39
72355;SHT30;60314;55.040;73.076;2022-08-19T15:41:27;13.40;84.39
72355;SHT30;60314;55.040;73.076;2022-08-19T15:43:59;13.39;84.38
72355;SHT30;60314;55.040;73.076;2022-08-19T15:46:45;13.38;84.21